createdAt,value
2016-12-05T00:00:15.608Z,378.02
2016-12-05T00:01:15.682Z,373.16
2016-12-05T00:02:15.681Z,374.12
2016-12-05T00:03:15.665Z,375.83
2016-12-05T00:04:15.849Z,380.12
2016-12-05T00:05:15.616Z,375.01
2016-12-05T00:06:15.675Z,371.96
2016-12-05T00:07:15.712Z,368.55
2016-12-05T00:08:15.669Z,368.71
2016-12-05T00:09:15.784Z,367.65
2016-12-05T00:10:15.641Z,365.48
2016-12-05T00:11:15.649Z,365.65
2016-12-05T00:12:15.644Z,369.67
2016-12-05T00:13:15.668Z,367.72
2016-12-05T00:14:15.673Z,369.67
2016-12-05T00:15:15.773Z,374.93
2016-12-05T00:16:15.663Z,370.76
2016-12-05T00:17:15.778Z,375.41
2016-12-05T00:18:15.649Z,379.19
2016-12-05T00:19:15.780Z,377
2016-12-05T00:20:15.693Z,376.51
2016-12-05T00:21:15.781Z,377.5
2016-12-05T00:22:15.632Z,375.81
2016-12-05T00:23:15.725Z,376.71
2016-12-05T00:24:15.703Z,373.11
2016-12-05T00:25:15.715Z,375.32
2016-12-05T00:26:15.681Z,373.27
2016-12-05T00:27:15.724Z,373.97
2016-12-05T00:28:15.679Z,371.5
2016-12-05T00:29:15.723Z,369.84
2016-12-05T00:30:15.636Z,369.02
2016-12-05T00:31:15.745Z,369.64
2016-12-05T00:32:15.671Z,367.7
2016-12-05T00:33:15.702Z,367.11
2016-12-05T00:34:15.689Z,365.84
2016-12-05T00:35:15.706Z,369.45
2016-12-05T00:36:15.732Z,364.72
2016-12-05T00:37:15.731Z,364.93
2016-12-05T00:38:15.661Z,365.55
2016-12-05T00:39:15.780Z,362.99
2016-12-05T00:40:15.672Z,364.31
2016-12-05T00:41:15.827Z,359.42
2016-12-05T00:42:15.733Z,360.55
2016-12-05T00:43:15.752Z,361.23
2016-12-05T00:44:15.725Z,360.3
2016-12-05T00:45:15.764Z,361.65
2016-12-05T00:46:15.833Z,365.41
2016-12-05T00:47:15.802Z,363.15
2016-12-05T00:48:15.685Z,366.54
2016-12-05T00:49:15.755Z,366.26
2016-12-05T00:50:15.890Z,365.18
2016-12-05T00:51:15.761Z,364.06
2016-12-05T00:52:15.658Z,361.81
2016-12-05T00:53:15.723Z,358.53
2016-12-05T00:54:15.682Z,358.78
2016-12-05T00:55:15.782Z,358.98
2016-12-05T00:56:15.721Z,359.55
2016-12-05T00:57:15.721Z,355.84
2016-12-05T00:58:15.796Z,357.35
2016-12-05T00:59:15.791Z,355.36
2016-12-05T01:00:15.761Z,359.34
2016-12-05T01:01:15.840Z,357.85
2016-12-05T01:02:15.744Z,361.8
2016-12-05T01:03:15.713Z,362.02
2016-12-05T01:04:15.715Z,359.81
2016-12-05T01:05:15.714Z,357.98
2016-12-05T01:06:15.830Z,362.47
2016-12-05T01:07:15.761Z,361.17
2016-12-05T01:08:15.682Z,360.98
2016-12-05T01:09:15.770Z,362.45
2016-12-05T01:10:15.825Z,361.69
2016-12-05T01:11:15.710Z,360.63
2016-12-05T01:12:15.669Z,361.71
2016-12-05T01:13:15.874Z,362.21
2016-12-05T01:14:15.826Z,362.4
2016-12-05T01:15:15.764Z,359.6
2016-12-05T01:16:15.687Z,359.36
2016-12-05T01:17:15.891Z,360.94
2016-12-05T01:18:15.734Z,361.11
2016-12-05T01:19:15.892Z,357.82
2016-12-05T01:20:15.699Z,360.42
2016-12-05T01:21:15.855Z,364.01
2016-12-05T01:22:15.722Z,361.13
2016-12-05T01:23:15.762Z,358.8
2016-12-05T01:24:15.740Z,361.43
2016-12-05T01:25:15.979Z,360.24
2016-12-05T01:26:15.722Z,359.99
2016-12-05T01:27:15.779Z,359.31
2016-12-05T01:28:15.750Z,357.3
2016-12-05T01:29:15.731Z,358.88
2016-12-05T01:30:15.733Z,356.43
2016-12-05T01:31:15.764Z,363.27
2016-12-05T01:32:15.719Z,362.69
2016-12-05T01:33:15.780Z,365.78
2016-12-05T01:34:15.732Z,368.21
2016-12-05T01:35:15.752Z,369.35
2016-12-05T01:36:16.358Z,364.08
2016-12-05T01:37:15.747Z,361.54
2016-12-05T01:38:15.726Z,362.29
2016-12-05T01:39:15.863Z,358.35
2016-12-05T01:40:15.716Z,359.89
2016-12-05T01:41:15.841Z,360.16
2016-12-05T01:42:15.703Z,360.24
2016-12-05T01:43:15.752Z,356.63
2016-12-05T01:44:15.733Z,362.01
2016-12-05T01:45:15.757Z,363.23
2016-12-05T01:46:15.733Z,365.43
2016-12-05T01:47:15.742Z,365.35
2016-12-05T01:48:15.714Z,366.12
2016-12-05T01:49:15.769Z,367.17
2016-12-05T01:50:15.703Z,363.4
2016-12-05T01:51:15.828Z,364.13
2016-12-05T01:52:15.725Z,368.68
2016-12-05T01:53:15.853Z,367.62
2016-12-05T01:54:15.753Z,369.86
2016-12-05T01:55:15.766Z,374.57
2016-12-05T01:56:15.712Z,373.85
2016-12-05T01:57:15.771Z,376.31
2016-12-05T01:58:15.744Z,378.49
2016-12-05T01:59:15.781Z,377.42
2016-12-05T02:00:15.711Z,372.16
2016-12-05T02:01:15.890Z,371.94
2016-12-05T02:02:15.764Z,371.13
2016-12-05T02:03:15.752Z,375.46
2016-12-05T02:04:15.787Z,371.43
2016-12-05T02:05:15.857Z,367.44
2016-12-05T02:06:15.778Z,374.33
2016-12-05T02:07:15.762Z,374.65
2016-12-05T02:08:15.752Z,373.29
2016-12-05T02:09:15.819Z,376.52
2016-12-05T02:10:15.744Z,374.8
2016-12-05T02:11:15.744Z,376.12
2016-12-05T02:12:15.735Z,374.12
2016-12-05T02:13:15.792Z,375.85
2016-12-05T02:14:15.799Z,376.1
2016-12-05T02:15:15.890Z,372.77
2016-12-05T02:16:15.734Z,370.56
2016-12-05T02:17:15.885Z,371.49
2016-12-05T02:18:15.732Z,374.41
2016-12-05T02:19:15.822Z,374.37
2016-12-05T02:20:15.733Z,373.08
2016-12-05T02:21:15.843Z,372.62
2016-12-05T02:22:15.744Z,373.87
2016-12-05T02:23:15.832Z,376.86
2016-12-05T02:24:15.779Z,377.96
2016-12-05T02:25:15.793Z,374.41
2016-12-05T02:26:15.750Z,376.57
2016-12-05T02:27:15.779Z,382.17
2016-12-05T02:28:15.756Z,377.25
2016-12-05T02:29:15.827Z,382.97
2016-12-05T02:30:15.767Z,380.28
2016-12-05T02:31:15.754Z,381.69
2016-12-05T02:32:15.766Z,383.13
2016-12-05T02:33:15.791Z,379.6
2016-12-05T02:34:15.773Z,381.83
2016-12-05T02:35:15.851Z,378.07
2016-12-05T02:36:15.785Z,378.06
2016-12-05T02:37:15.899Z,378.27
2016-12-05T02:38:15.782Z,380.7
2016-12-05T02:39:15.928Z,373.69
2016-12-05T02:40:15.782Z,370.28
2016-12-05T02:41:15.868Z,369.51
2016-12-05T02:42:15.782Z,373.63
2016-12-05T02:43:15.898Z,374.05
2016-12-05T02:44:15.815Z,377.53
2016-12-05T02:45:15.901Z,377.08
2016-12-05T02:46:15.783Z,371.82
2016-12-05T02:47:15.799Z,371.33
2016-12-05T02:48:15.766Z,370.22
2016-12-05T02:49:15.895Z,368.73
2016-12-05T02:50:15.790Z,367.98
2016-12-05T02:51:15.780Z,373.34
2016-12-05T02:52:15.774Z,375.35
2016-12-05T02:53:15.782Z,371.07
2016-12-05T02:54:15.803Z,374.82
2016-12-05T02:55:15.810Z,374.84
2016-12-05T02:56:15.801Z,370.43
2016-12-05T02:57:15.856Z,369.75
2016-12-05T02:58:15.784Z,372.96
2016-12-05T02:59:15.807Z,368.86
2016-12-05T03:00:15.787Z,366.45
2016-12-05T03:01:15.824Z,369.78
2016-12-05T03:02:15.802Z,371.76
2016-12-05T03:03:15.890Z,374.25
2016-12-05T03:04:15.821Z,369.12
2016-12-05T03:05:15.980Z,366.72
2016-12-05T03:06:15.826Z,367.94
2016-12-05T03:07:15.840Z,366.34
2016-12-05T03:08:15.825Z,367.19
2016-12-05T03:09:15.830Z,368.98
2016-12-05T03:10:15.845Z,369.65
2016-12-05T03:11:15.811Z,371.36
2016-12-05T03:12:15.803Z,370.27
2016-12-05T03:13:15.818Z,367.65
2016-12-05T03:14:15.820Z,369.84
2016-12-05T03:15:15.819Z,365.92
2016-12-05T03:16:15.805Z,365.39
2016-12-05T03:17:15.815Z,365.41
2016-12-05T03:18:15.822Z,362.83
2016-12-05T03:19:15.939Z,366.56
2016-12-05T03:20:15.848Z,370.4
2016-12-05T03:21:15.963Z,370.16
2016-12-05T03:22:15.833Z,372.32
2016-12-05T03:23:15.827Z,371.03
2016-12-05T03:24:15.855Z,370.77
2016-12-05T03:25:15.835Z,366.76
2016-12-05T03:26:15.817Z,366.54
2016-12-05T03:27:15.836Z,366.31
2016-12-05T03:28:15.813Z,369.84
2016-12-05T03:29:15.857Z,365.84
2016-12-05T03:30:15.835Z,365.58
2016-12-05T03:31:15.835Z,362.73
2016-12-05T03:32:15.819Z,366.7
2016-12-05T03:33:15.866Z,366.77
2016-12-05T03:34:15.844Z,367.06
2016-12-05T03:35:15.806Z,366.02
2016-12-05T03:36:15.973Z,363.46
2016-12-05T03:37:15.822Z,367.01
2016-12-05T03:38:15.876Z,366.27
2016-12-05T03:39:15.867Z,363.86
2016-12-05T03:40:15.848Z,358.03
2016-12-05T03:41:15.827Z,363.45
2016-12-05T03:42:15.837Z,365.2
2016-12-05T03:43:15.838Z,361.59
2016-12-05T03:44:15.843Z,361.39
2016-12-05T03:45:15.848Z,360.97
2016-12-05T03:46:15.837Z,364.5
2016-12-05T03:47:15.845Z,361.77
2016-12-05T03:48:15.856Z,363.08
2016-12-05T03:49:15.863Z,370.95
2016-12-05T03:50:15.889Z,366.51
2016-12-05T03:51:15.868Z,365.75
2016-12-05T03:52:15.855Z,365.96
2016-12-05T03:53:15.844Z,364.32
2016-12-05T03:54:15.855Z,366.57
2016-12-05T03:55:15.847Z,367.9
2016-12-05T03:56:15.879Z,365.92
2016-12-05T03:57:15.867Z,371.8
2016-12-05T03:58:15.872Z,367.41
2016-12-05T03:59:15.905Z,370.67
2016-12-05T04:00:15.864Z,370.04
2016-12-05T04:01:15.847Z,367.38
2016-12-05T04:02:15.841Z,368.79
2016-12-05T04:03:15.862Z,366.14
2016-12-05T04:04:15.876Z,366.86
2016-12-05T04:05:15.862Z,368.14
2016-12-05T04:06:15.854Z,367.79
2016-12-05T04:07:15.855Z,369.58
2016-12-05T04:08:15.846Z,365.63
2016-12-05T04:09:15.906Z,366.52
2016-12-05T04:10:15.845Z,368.5
2016-12-05T04:11:15.848Z,366.96
2016-12-05T04:12:15.876Z,364.29
2016-12-05T04:13:15.866Z,362.51
2016-12-05T04:14:15.918Z,363.75
2016-12-05T04:15:15.885Z,362.69
2016-12-05T04:16:15.858Z,365.36
2016-12-05T04:17:15.857Z,361.33
2016-12-05T04:18:15.930Z,366.26
2016-12-05T04:19:15.952Z,365.87
2016-12-05T04:20:15.897Z,363
2016-12-05T04:21:15.873Z,362.05
2016-12-05T04:22:15.854Z,363.2
2016-12-05T04:23:15.901Z,364.3
2016-12-05T04:24:15.895Z,359.86
2016-12-05T04:25:15.876Z,360.11
2016-12-05T04:26:15.903Z,361.15
2016-12-05T04:27:15.874Z,360.08
2016-12-05T04:28:15.887Z,358.98
2016-12-05T04:29:15.925Z,360.54
2016-12-05T04:30:15.886Z,358.73
2016-12-05T04:31:15.865Z,356.92
2016-12-05T04:32:15.896Z,358.31
2016-12-05T04:33:15.881Z,355.4
2016-12-05T04:34:15.936Z,359.16
2016-12-05T04:35:15.899Z,354.75
2016-12-05T04:36:15.882Z,356.3
2016-12-05T04:37:15.905Z,352.81
2016-12-05T04:38:15.892Z,351.64
2016-12-05T04:39:15.907Z,352.3
2016-12-05T04:40:15.886Z,348.27
2016-12-05T04:41:16.208Z,347.7
2016-12-05T04:42:15.933Z,347.45
2016-12-05T04:43:15.909Z,343.88
2016-12-05T04:44:15.922Z,343.42
2016-12-05T04:45:15.894Z,340.92
2016-12-05T04:46:15.903Z,344.78
2016-12-05T04:47:15.904Z,343.24
2016-12-05T04:48:15.920Z,343.46
2016-12-05T04:49:15.926Z,340.84
2016-12-05T04:50:15.906Z,343.44
2016-12-05T04:51:15.914Z,339.61
2016-12-05T04:52:15.905Z,341.63
2016-12-05T04:53:15.919Z,347.04
2016-12-05T04:54:15.946Z,342.56
2016-12-05T04:55:15.944Z,339.41
2016-12-05T04:56:15.955Z,340.47
2016-12-05T04:57:15.894Z,342.51
2016-12-05T04:58:15.899Z,341.17
2016-12-05T04:59:15.926Z,342.08
2016-12-05T05:00:15.920Z,341.31
2016-12-05T05:01:15.981Z,340.66
2016-12-05T05:02:15.956Z,340.84
2016-12-05T05:03:15.905Z,343.97
2016-12-05T05:04:15.945Z,345.3
2016-12-05T05:05:15.944Z,346.22
2016-12-05T05:06:15.975Z,350.4
2016-12-05T05:07:17.214Z,346.19
2016-12-05T05:08:15.947Z,347.59
2016-12-05T05:09:15.966Z,346.28
2016-12-05T05:10:16.022Z,351.18
2016-12-05T05:11:15.915Z,350.95
2016-12-05T05:12:16.035Z,351.08
2016-12-05T05:13:15.951Z,350.76
2016-12-05T05:14:15.994Z,349.7
2016-12-05T05:15:15.925Z,349.1
2016-12-05T05:16:15.951Z,351.64
2016-12-05T05:17:15.957Z,346.74
2016-12-05T05:18:15.969Z,350.04
2016-12-05T05:19:15.954Z,352.2
2016-12-05T05:20:16.023Z,350.1
2016-12-05T05:21:15.955Z,350.08
2016-12-05T05:22:15.954Z,347.4
2016-12-05T05:23:15.943Z,345.8
2016-12-05T05:24:16.034Z,346.48
2016-12-05T05:25:15.986Z,343.2
2016-12-05T05:26:15.952Z,348.95
2016-12-05T05:27:16.034Z,351.21
2016-12-05T05:28:15.965Z,350.08
2016-12-05T05:29:16.175Z,348.78
2016-12-05T05:30:16.014Z,350.42
2016-12-05T05:31:15.975Z,350.96
2016-12-05T05:32:15.974Z,354.53
2016-12-05T05:33:15.938Z,348.34
2016-12-05T05:34:15.986Z,351.62
2016-12-05T05:35:15.995Z,351.54
2016-12-05T05:36:16.085Z,349.03
2016-12-05T05:37:15.934Z,347.97
2016-12-05T05:38:16.066Z,349.29
2016-12-05T05:39:15.955Z,351.98
2016-12-05T05:40:15.978Z,350.89
2016-12-05T05:41:15.992Z,355.54
2016-12-05T05:42:16.017Z,353.38
2016-12-05T05:43:15.965Z,353.55
2016-12-05T05:44:16.157Z,354.7
2016-12-05T05:45:15.976Z,356.51
2016-12-05T05:46:16.035Z,355.25
2016-12-05T05:47:15.967Z,355.58
2016-12-05T05:48:15.996Z,356.29
2016-12-05T05:49:16.003Z,358.48
2016-12-05T05:50:15.985Z,357.95
2016-12-05T05:51:15.963Z,358.14
2016-12-05T05:52:16.012Z,358.26
2016-12-05T05:53:15.988Z,358.48
2016-12-05T05:54:16.075Z,356.73
2016-12-05T05:55:16.032Z,356.88
2016-12-05T05:56:15.985Z,357.54
2016-12-05T05:57:15.993Z,358.67
2016-12-05T05:58:16.094Z,360.5
2016-12-05T05:59:16.095Z,359.53
2016-12-05T06:00:16.065Z,360.84
2016-12-05T06:01:15.985Z,364.28
2016-12-05T06:02:16.004Z,361.86
2016-12-05T06:03:15.968Z,360.42
2016-12-05T06:04:16.127Z,361.52
2016-12-05T06:05:15.994Z,359.47
2016-12-05T06:06:15.980Z,359.62
2016-12-05T06:07:15.983Z,361.17
2016-12-05T06:08:16.045Z,360.87
2016-12-05T06:09:16.035Z,362.37
2016-12-05T06:10:16.150Z,361.31
2016-12-05T06:11:16.057Z,358.19
2016-12-05T06:12:16.125Z,356.6
2016-12-05T06:13:15.996Z,355.57
2016-12-05T06:14:16.083Z,353.53
2016-12-05T06:15:15.989Z,351.69
2016-12-05T06:16:16.129Z,353.35
2016-12-05T06:17:16.031Z,352.88
2016-12-05T06:18:16.153Z,352.18
2016-12-05T06:19:16.063Z,348.69
2016-12-05T06:20:16.096Z,347.56
2016-12-05T06:21:15.996Z,349.13
2016-12-05T06:22:16.076Z,350.05
2016-12-05T06:23:16.002Z,354.25
2016-12-05T06:24:16.159Z,351.62
2016-12-05T06:25:16.036Z,353.96
2016-12-05T06:26:16.100Z,351.01
2016-12-05T06:27:16.067Z,350.59
2016-12-05T06:28:16.078Z,351.19
2016-12-05T06:29:16.015Z,350.18
2016-12-05T06:30:16.055Z,347.28
2016-12-05T06:31:16.047Z,345.2
2016-12-05T06:32:16.673Z,343.32
2016-12-05T06:33:16.055Z,345.97
2016-12-05T06:34:16.167Z,347.11
2016-12-05T06:35:17.929Z,350.33
2016-12-05T06:36:17.646Z,346.29
2016-12-05T06:37:17.833Z,344.45
2016-12-05T06:38:16.140Z,346.01
2016-12-05T06:39:16.044Z,346.93
2016-12-05T06:40:16.142Z,351.22
2016-12-05T06:41:16.034Z,349.59
2016-12-05T06:42:16.136Z,346.89
2016-12-05T06:43:17.076Z,347.78
2016-12-05T06:44:16.052Z,347.62
2016-12-05T06:45:16.066Z,346.65
2016-12-05T06:46:16.096Z,345.32
2016-12-05T06:47:16.019Z,345.34
2016-12-05T06:48:16.158Z,343.4
2016-12-05T06:49:16.052Z,345.8
2016-12-05T06:50:16.113Z,345.38
2016-12-05T06:51:16.044Z,347.59
2016-12-05T06:52:16.084Z,347.25
2016-12-05T06:53:16.044Z,343.67
2016-12-05T06:54:16.206Z,347.99
2016-12-05T06:55:16.051Z,346.3
2016-12-05T06:56:16.036Z,347.7
2016-12-05T06:57:16.017Z,346.04
2016-12-05T06:58:16.167Z,343.4
2016-12-05T06:59:16.122Z,345.49
2016-12-05T07:00:16.164Z,344.73
2016-12-05T07:01:16.041Z,342.77
2016-12-05T07:02:16.066Z,343.06
2016-12-05T07:03:16.041Z,343.48
2016-12-05T07:04:16.188Z,343.27
2016-12-05T07:05:16.068Z,341.79
2016-12-05T07:06:16.218Z,341.98
2016-12-05T07:07:16.148Z,338.66
2016-12-05T07:08:16.071Z,340.39
2016-12-05T07:09:16.095Z,339.74
2016-12-05T07:10:16.137Z,341.3
2016-12-05T07:11:16.068Z,340.98
2016-12-05T07:12:16.129Z,338.59
2016-12-05T07:13:16.067Z,338.61
2016-12-05T07:14:16.195Z,337.98
2016-12-05T07:15:16.056Z,338.88
2016-12-05T07:16:16.219Z,338.74
2016-12-05T07:17:16.063Z,339.47
2016-12-05T07:18:16.196Z,338.7
2016-12-05T07:19:16.129Z,339.21
2016-12-05T07:20:16.152Z,339.66
2016-12-05T07:21:16.120Z,342.1
2016-12-05T07:22:16.175Z,340.52
2016-12-05T07:23:16.103Z,340.29
2016-12-05T07:24:16.186Z,341.65
2016-12-05T07:25:16.077Z,342.93
2016-12-05T07:26:16.205Z,342.87
2016-12-05T07:27:16.079Z,345.58
2016-12-05T07:28:16.249Z,346
2016-12-05T07:29:16.154Z,342.84
2016-12-05T07:30:16.197Z,342.43
2016-12-05T07:31:16.089Z,347.11
2016-12-05T07:32:16.242Z,348.91
2016-12-05T07:33:16.081Z,343.93
2016-12-05T07:34:16.163Z,345.58
2016-12-05T07:35:16.104Z,344.21
2016-12-05T07:36:17.617Z,349.55
2016-12-05T07:37:16.092Z,348.01
2016-12-05T07:38:16.135Z,345.77
2016-12-05T07:39:16.121Z,346.89
2016-12-05T07:40:16.256Z,348.07
2016-12-05T07:41:16.104Z,348.04
2016-12-05T07:42:16.124Z,345.11
2016-12-05T07:43:16.107Z,344.41
2016-12-05T07:44:16.143Z,343.03
2016-12-05T07:45:16.160Z,343.95
2016-12-05T07:46:16.160Z,345.71
2016-12-05T07:47:16.114Z,345.55
2016-12-05T07:48:17.255Z,346.69
2016-12-05T07:49:16.129Z,347.38
2016-12-05T07:50:16.178Z,352.13
2016-12-05T07:51:16.150Z,352.92
2016-12-05T07:52:16.184Z,352.5
2016-12-05T07:53:16.124Z,353.4
2016-12-05T07:54:16.268Z,350.02
2016-12-05T07:55:16.187Z,350.78
2016-12-05T07:56:16.142Z,349.71
2016-12-05T07:57:16.115Z,353.56
2016-12-05T07:58:16.178Z,354.27
2016-12-05T07:59:16.172Z,354.42
2016-12-05T08:00:16.164Z,355.41
2016-12-05T08:01:16.092Z,358.06
2016-12-05T08:02:16.181Z,360.27
2016-12-05T08:03:16.128Z,361.4
2016-12-05T08:04:16.396Z,359.23
2016-12-05T08:05:16.129Z,362.68
2016-12-05T08:06:16.260Z,360.94
2016-12-05T08:07:16.162Z,362.58
2016-12-05T08:08:16.121Z,366.3
2016-12-05T08:09:16.220Z,367.92
2016-12-05T08:10:16.184Z,371.66
2016-12-05T08:11:16.138Z,369.9
2016-12-05T08:12:16.264Z,374.55
2016-12-05T08:13:16.144Z,377.39
2016-12-05T08:14:16.179Z,379.42
2016-12-05T08:15:16.141Z,382.74
2016-12-05T08:16:16.303Z,384.5
2016-12-05T08:17:16.113Z,385.62
2016-12-05T08:18:16.152Z,384.68
2016-12-05T08:19:16.130Z,389.31
2016-12-05T08:20:16.234Z,390.11
2016-12-05T08:21:16.142Z,393.63
2016-12-05T08:22:16.167Z,395.71
2016-12-05T08:23:16.125Z,398.62
2016-12-05T08:24:16.320Z,404.73
2016-12-05T08:25:16.143Z,402.92
2016-12-05T08:26:16.260Z,405.89
2016-12-05T08:27:16.163Z,413.94
2016-12-05T08:28:18.017Z,418.19
2016-12-05T08:29:16.162Z,425.31
2016-12-05T08:30:16.256Z,428.82
2016-12-05T08:31:16.156Z,431.55
2016-12-05T08:32:16.284Z,434.47
2016-12-05T08:33:16.153Z,439.03
2016-12-05T08:34:16.315Z,439.86
2016-12-05T08:35:16.145Z,444.05
2016-12-05T08:36:16.306Z,444.79
2016-12-05T08:37:16.163Z,446.69
2016-12-05T08:38:16.214Z,448.49
2016-12-05T08:39:16.274Z,452.18
2016-12-05T08:40:16.249Z,456.02
2016-12-05T08:41:16.218Z,458.55
2016-12-05T08:42:16.205Z,460.56
2016-12-05T08:43:16.153Z,463.76
2016-12-05T08:44:16.222Z,464.76
2016-12-05T08:45:16.192Z,467.91
2016-12-05T08:46:16.257Z,472.99
2016-12-05T08:47:16.162Z,471.49
2016-12-05T08:48:16.233Z,478.18
2016-12-05T08:49:16.196Z,480.87
2016-12-05T08:50:16.322Z,479.61
2016-12-05T08:51:16.135Z,484.19
2016-12-05T08:52:16.162Z,485.44
2016-12-05T08:53:16.199Z,487.9
2016-12-05T08:54:16.182Z,492.69
2016-12-05T08:55:16.181Z,495.31
2016-12-05T08:56:16.148Z,496.83
2016-12-05T08:57:16.164Z,498.48
2016-12-05T08:58:16.197Z,504.15
2016-12-05T08:59:16.260Z,511.5
2016-12-05T09:00:16.303Z,519.46
2016-12-05T09:01:16.166Z,519.58
2016-12-05T09:03:34.827Z,525.69
2016-12-05T09:04:34.873Z,529.48
2016-12-05T09:05:34.771Z,530.32
2016-12-05T09:06:34.959Z,536.12
2016-12-05T09:07:34.773Z,543.11
2016-12-05T09:08:34.833Z,542.37
2016-12-05T09:09:34.799Z,544.28
2016-12-05T09:10:34.836Z,544.13
2016-12-05T09:11:34.862Z,548.33
2016-12-05T09:12:34.937Z,549.05
2016-12-05T09:13:34.949Z,552.39
2016-12-05T09:14:34.901Z,548.82
2016-12-05T09:15:35.144Z,552.64
2016-12-05T09:16:34.823Z,558.09
2016-12-05T09:17:34.918Z,558.67
2016-12-05T09:18:35.012Z,563.2
2016-12-05T09:19:34.994Z,566.35
2016-12-05T09:20:34.920Z,570.04
2016-12-05T09:21:34.933Z,570.84
2016-12-05T09:22:34.922Z,573.26
2016-12-05T09:23:34.950Z,578.07
2016-12-05T09:24:34.938Z,575.16
2016-12-05T09:25:34.919Z,579.62
2016-12-05T09:26:34.867Z,579.89
2016-12-05T09:27:34.984Z,587.74
2016-12-05T09:28:34.798Z,595.34
2016-12-05T09:29:35.078Z,600.61
2016-12-05T09:31:05.324Z,601.39
2016-12-05T09:31:39.908Z,607.97
2016-12-05T09:32:39.786Z,608.26
2016-12-05T09:33:39.832Z,605.18
2016-12-05T09:34:39.838Z,611.41
2016-12-05T09:35:39.793Z,618.41
2016-12-05T09:36:39.804Z,622.08
2016-12-05T09:37:39.758Z,635.24
2016-12-05T09:38:39.875Z,639.69
2016-12-05T09:39:39.972Z,659.55
2016-12-05T09:40:39.849Z,675.96
2016-12-05T09:41:39.881Z,697.36
2016-12-05T09:42:39.873Z,713.35
2016-12-05T09:43:39.823Z,714.66
2016-12-05T09:44:39.889Z,739.08
2016-12-05T09:45:39.785Z,739.67
2016-12-05T09:46:39.808Z,749.45
2016-12-05T09:47:39.851Z,770.61
2016-12-05T09:48:39.947Z,774.82
2016-12-05T09:49:39.859Z,778.78
2016-12-05T09:50:39.784Z,784.27
2016-12-05T09:51:39.835Z,799.68
2016-12-05T09:52:39.779Z,796.26
2016-12-05T09:53:39.835Z,792.96
2016-12-05T09:54:40.176Z,813.22
2016-12-05T09:55:39.839Z,821.6
2016-12-05T09:56:39.829Z,826.5
2016-12-05T09:57:39.898Z,832.54
2016-12-05T09:58:39.938Z,831.78
2016-12-05T09:59:39.937Z,835.6
2016-12-05T10:04:08.423Z,845.95
2016-12-05T10:05:08.472Z,827.47
2016-12-05T10:06:08.349Z,815.6
2016-12-05T10:07:08.325Z,802.48
2016-12-05T10:08:08.260Z,779.94
2016-12-05T10:09:08.384Z,776.77
2016-12-05T10:10:08.302Z,775.09
2016-12-05T10:11:08.265Z,760.62
2016-12-05T10:12:08.273Z,753.52
2016-12-05T10:13:08.404Z,738.12
2016-12-05T10:14:08.327Z,734.63
2016-12-05T10:15:08.368Z,734.03
2016-12-05T10:16:08.350Z,742.72
2016-12-05T10:17:08.324Z,746.66
2016-12-05T10:18:08.272Z,742.48
2016-12-05T10:19:08.376Z,738.8
2016-12-05T10:20:08.389Z,732.31
2016-12-05T10:21:08.414Z,725.16
2016-12-05T10:22:08.369Z,714.29
2016-12-05T10:23:08.412Z,706.16
2016-12-05T10:24:08.368Z,706.47
2016-12-05T10:25:08.486Z,697.47
2016-12-05T10:26:08.382Z,685.02
2016-12-05T10:27:08.426Z,682.55
2016-12-05T10:28:08.404Z,681.68
2016-12-05T10:29:08.437Z,685.74
2016-12-05T10:30:08.358Z,682.78
2016-12-05T10:31:08.377Z,683.46
2016-12-05T10:32:08.339Z,679.53
2016-12-05T10:33:08.309Z,678.37
2016-12-05T10:34:08.340Z,678.15
2016-12-05T10:35:08.490Z,673.79
2016-12-05T10:36:08.336Z,672.83
2016-12-05T10:37:08.472Z,668.91
2016-12-05T10:38:08.394Z,669.05
2016-12-05T10:39:08.484Z,674.44
2016-12-05T10:40:08.354Z,671.43
2016-12-05T10:41:08.495Z,676.58
2016-12-05T10:42:08.446Z,672.13
2016-12-05T10:43:08.348Z,672.27
2016-12-05T10:44:08.375Z,667.86
2016-12-05T10:45:08.538Z,669.96
2016-12-05T10:46:08.367Z,667.3
2016-12-05T10:47:08.489Z,665.84
2016-12-05T10:48:08.386Z,667.66
2016-12-05T10:49:08.471Z,667.16
2016-12-05T10:50:08.386Z,668.46
2016-12-05T10:51:08.412Z,667.52
2016-12-05T10:52:08.309Z,668.6
2016-12-05T10:53:08.361Z,670.94
2016-12-05T10:54:08.343Z,671.26
2016-12-05T10:55:08.343Z,668.45
2016-12-05T10:56:08.312Z,673.09
2016-12-05T10:57:08.289Z,676.88
2016-12-05T10:58:08.316Z,676.99
2016-12-05T10:59:08.315Z,676.31
2016-12-05T11:00:08.344Z,675.56
2016-12-05T11:01:08.307Z,678.75
2016-12-05T11:02:08.319Z,680.87
2016-12-05T11:03:08.305Z,684.57
2016-12-05T11:04:08.363Z,690.73
2016-12-05T11:05:08.355Z,692.74
2016-12-05T11:06:08.333Z,703.53
2016-12-05T11:07:08.351Z,713.27
2016-12-05T11:08:08.390Z,722.98
2016-12-05T11:09:08.322Z,736.79
2016-12-05T11:10:08.355Z,749.73
2016-12-05T11:11:08.342Z,749.92
2016-12-05T11:12:08.350Z,761.51
2016-12-05T11:13:08.333Z,774.47
2016-12-05T11:14:08.348Z,782.94
2016-12-05T11:15:08.364Z,791.74
2016-12-05T11:16:08.454Z,793.28
2016-12-05T11:17:08.346Z,801.56
2016-12-05T11:18:08.335Z,804.61
2016-12-05T11:19:08.345Z,809.95
2016-12-05T11:20:08.383Z,810.39
2016-12-05T11:21:08.370Z,821.08
2016-12-05T11:22:08.409Z,830.75
2016-12-05T11:23:08.343Z,832.84
2016-12-05T11:24:08.363Z,840.73
2016-12-05T11:25:08.339Z,842.18
2016-12-05T11:26:08.438Z,837.99
2016-12-05T11:27:08.352Z,843.2
2016-12-05T11:28:08.448Z,840.29
2016-12-05T11:29:08.364Z,843.69
2016-12-05T11:30:08.483Z,847.06
2016-12-05T11:31:08.422Z,847.01
2016-12-05T11:32:08.520Z,848.82
2016-12-05T11:33:08.363Z,848.68
2016-12-05T11:34:08.358Z,847.32
2016-12-05T11:35:08.393Z,850.77
2016-12-05T11:36:08.378Z,852.54
2016-12-05T11:37:08.358Z,849.67
2016-12-05T11:38:08.472Z,844.34
2016-12-05T11:39:08.344Z,841.93
2016-12-05T11:40:09.714Z,842.17
2016-12-05T11:41:08.387Z,841.14
2016-12-05T11:42:08.393Z,843.63
2016-12-05T11:43:08.403Z,845.05
2016-12-05T11:44:08.414Z,846.1
2016-12-05T11:45:08.371Z,844.17
2016-12-05T11:46:08.504Z,849.54
2016-12-05T11:47:08.403Z,849.88
2016-12-05T11:48:08.511Z,850.03
2016-12-05T11:49:08.361Z,846.76
2016-12-05T11:50:08.407Z,850.13
2016-12-05T11:51:08.375Z,858.71
2016-12-05T11:52:08.394Z,855.88
2016-12-05T11:53:08.403Z,865.53
2016-12-05T11:54:08.446Z,864.52
2016-12-05T11:55:08.412Z,868.65
2016-12-05T11:56:08.488Z,873.37
2016-12-05T11:57:08.438Z,875.81
2016-12-05T11:58:08.401Z,875.23
2016-12-05T11:59:08.409Z,876.77
2016-12-05T12:00:08.709Z,885.18
2016-12-05T12:01:09.024Z,883.92
2016-12-05T12:02:08.698Z,885.04
2016-12-05T12:03:08.448Z,886.93
2016-12-05T12:04:08.455Z,894.28
2016-12-05T12:05:08.394Z,891.54
2016-12-05T12:06:08.679Z,892.58
2016-12-05T12:07:08.453Z,894.88
2016-12-05T12:08:08.640Z,893.02
2016-12-05T12:09:08.393Z,896.04
2016-12-05T12:10:08.522Z,900.72
2016-12-05T12:11:08.445Z,898.51
2016-12-05T12:12:08.754Z,900.11
2016-12-05T12:13:08.517Z,899.08
2016-12-05T12:14:08.599Z,898.77
2016-12-05T12:15:08.416Z,895.67
2016-12-05T12:16:08.484Z,890.14
2016-12-05T12:17:08.446Z,894.2
2016-12-05T12:18:09.180Z,888.09
2016-12-05T12:19:08.453Z,890.25
2016-12-05T12:20:08.624Z,890.17
2016-12-05T12:21:08.416Z,883.96
2016-12-05T12:22:08.474Z,881.63
2016-12-05T12:23:08.590Z,885.81
2016-12-05T12:24:08.451Z,884.67
2016-12-05T12:25:08.415Z,885.51
2016-12-05T12:26:08.494Z,877.62
2016-12-05T12:27:08.445Z,877.49
2016-12-05T12:28:08.490Z,887.61
2016-12-05T12:29:08.396Z,886.27
2016-12-05T12:30:08.471Z,887.46
2016-12-05T12:31:08.428Z,888.32
2016-12-05T12:32:08.563Z,888
2016-12-05T12:33:08.432Z,892.04
2016-12-05T12:34:08.623Z,894.6
2016-12-05T12:35:08.435Z,897.37
2016-12-05T12:36:08.472Z,898.19